createdAt,value
2019-05-29T00:01:56.906Z,99.90
2019-05-29T00:04:41.402Z,99.90
2019-05-29T00:07:38.756Z,99.90
2019-05-29T00:10:16.354Z,99.90
2019-05-29T00:12:53.898Z,99.90
2019-05-29T00:15:31.473Z,99.90
2019-05-29T00:18:10.281Z,99.90
2019-05-29T00:20:46.678Z,99.90
2019-05-29T00:23:24.312Z,99.90
2019-05-29T00:26:01.927Z,99.90
2019-05-29T00:28:39.445Z,99.90
2019-05-29T00:31:18.144Z,99.90
2019-05-29T00:33:54.498Z,99.90
2019-05-29T00:36:32.203Z,99.90
2019-05-29T00:39:11.081Z,99.90
2019-05-29T00:41:48.666Z,99.90
2019-05-29T00:44:34.480Z,99.90
2019-05-29T00:47:11.546Z,99.90
2019-05-29T00:50:00.578Z,99.90
2019-05-29T00:52:39.551Z,99.90
2019-05-29T00:55:31.136Z,99.90
2019-05-29T00:58:12.819Z,99.90
2019-05-29T01:00:58.949Z,99.90
2019-05-29T01:03:42.016Z,99.90
2019-05-29T01:06:25.125Z,99.90
2019-05-29T01:09:20.703Z,99.90
2019-05-29T01:12:09.385Z,99.90
2019-05-29T01:15:03.387Z,99.90
2019-05-29T01:17:43.455Z,99.90
2019-05-29T01:20:21.997Z,99.90
2019-05-29T01:22:58.615Z,99.90
2019-05-29T01:25:36.206Z,99.90
2019-05-29T01:28:14.701Z,99.90
2019-05-29T01:30:51.801Z,99.90
2019-05-29T01:33:29.306Z,99.90
2019-05-29T01:36:06.856Z,99.90
2019-05-29T01:38:44.396Z,99.90
2019-05-29T01:41:21.976Z,99.90
2019-05-29T01:43:59.774Z,99.90
2019-05-29T01:46:37.381Z,99.90
2019-05-29T01:49:16.027Z,99.90
2019-05-29T01:51:52.852Z,99.90
2019-05-29T01:54:33.214Z,99.90
2019-05-29T01:57:17.750Z,99.90
2019-05-29T01:59:59.898Z,99.90
2019-05-29T02:02:43.994Z,99.90
2019-05-29T02:05:33.583Z,99.90
2019-05-29T02:08:28.280Z,99.90
2019-05-29T02:11:19.209Z,99.90
2019-05-29T02:14:12.974Z,99.90
2019-05-29T02:17:00.214Z,99.90
2019-05-29T02:19:51.202Z,99.90
2019-05-29T02:22:28.847Z,99.90
2019-05-29T02:25:06.346Z,99.90
2019-05-29T02:27:43.906Z,99.90
2019-05-29T02:30:23.536Z,99.90
2019-05-29T02:32:58.974Z,99.90
2019-05-29T02:35:36.514Z,99.90
2019-05-29T02:38:14.329Z,99.90
2019-05-29T02:40:51.885Z,99.90
2019-05-29T02:43:30.129Z,99.90
2019-05-29T02:46:07.220Z,99.90
2019-05-29T02:48:46.111Z,99.90
2019-05-29T02:51:30.516Z,99.90
2019-05-29T02:54:20.168Z,99.90
2019-05-29T02:57:08.589Z,99.90
2019-05-29T02:59:53.604Z,99.90
2019-05-29T03:02:45.478Z,99.90
2019-05-29T03:05:43.609Z,99.90
2019-05-29T03:08:22.359Z,99.90
2019-05-29T03:11:23.055Z,99.90
2019-05-29T03:14:02.315Z,99.90
2019-05-29T03:16:44.083Z,99.90
2019-05-29T03:19:21.529Z,99.90
2019-05-29T03:21:59.083Z,99.90
2019-05-29T03:24:36.594Z,99.90
2019-05-29T03:27:14.105Z,99.90
2019-05-29T03:29:51.687Z,99.90
2019-05-29T03:32:32.375Z,99.90
2019-05-29T03:35:07.136Z,99.90
2019-05-29T03:37:44.744Z,99.90
2019-05-29T03:40:22.264Z,99.90
2019-05-29T03:42:59.970Z,99.90
2019-05-29T03:45:38.027Z,99.90
2019-05-29T03:48:15.065Z,99.90
2019-05-29T03:50:52.560Z,99.90
2019-05-29T03:53:35.894Z,99.90
2019-05-29T03:56:16.518Z,99.90
2019-05-29T03:59:09.124Z,99.90
2019-05-29T04:02:14.506Z,99.90
2019-05-29T04:05:07.400Z,99.90
2019-05-29T04:08:08.241Z,99.90
2019-05-29T04:10:46.623Z,99.90
2019-05-29T04:13:29.570Z,99.90
2019-05-29T04:16:13.306Z,99.90
2019-05-29T04:18:52.471Z,99.90
2019-05-29T04:21:32.155Z,99.90
2019-05-29T04:24:10.708Z,99.90
2019-05-29T04:26:48.299Z,99.90
2019-05-29T04:29:27.940Z,99.90
2019-05-29T04:32:07.874Z,99.90
2019-05-29T04:34:45.459Z,99.90
2019-05-29T04:37:23.107Z,99.90
2019-05-29T04:40:02.103Z,99.90
2019-05-29T04:42:41.237Z,99.90
2019-05-29T04:45:18.620Z,99.90
2019-05-29T04:47:56.203Z,99.90
2019-05-29T04:50:36.481Z,99.90
2019-05-29T04:53:29.239Z,99.90
2019-05-29T04:56:10.064Z,99.90
2019-05-29T04:59:06.814Z,99.90
2019-05-29T05:01:49.922Z,99.90
2019-05-29T05:04:39.417Z,99.70
2019-05-29T05:07:22.916Z,98.80
2019-05-29T05:10:08.190Z,98.80
2019-05-29T05:12:56.050Z,97.40
2019-05-29T05:15:40.765Z,97.00
2019-05-29T05:18:32.002Z,96.00
2019-05-29T05:21:11.585Z,94.50
2019-05-29T05:23:49.720Z,93.70
2019-05-29T05:26:27.139Z,92.40
2019-05-29T05:29:05.089Z,92.60
2019-05-29T05:31:42.599Z,91.80
2019-05-29T05:34:20.206Z,90.90
2019-05-29T05:36:57.754Z,90.20
2019-05-29T05:39:35.284Z,89.90
2019-05-29T05:42:12.883Z,87.80
2019-05-29T05:44:53.533Z,87.10
2019-05-29T05:47:44.986Z,88.30
2019-05-29T05:50:15.145Z,87.50
2019-05-29T05:52:59.149Z,86.30
2019-05-29T05:55:42.850Z,85.50
2019-05-29T05:58:24.204Z,86.00
2019-05-29T06:01:20.417Z,86.70
2019-05-29T06:04:05.115Z,85.80
2019-05-29T06:06:49.333Z,86.90
2019-05-29T06:09:36.153Z,86.10
2019-05-29T06:12:34.496Z,84.80
2019-05-29T06:15:22.553Z,85.30
2019-05-29T06:18:17.168Z,84.50
2019-05-29T06:20:32.842Z,83.00
2019-05-29T06:23:20.962Z,82.00
2019-05-29T06:26:00.074Z,80.70
2019-05-29T06:29:02.828Z,81.50
2019-05-29T06:32:04.457Z,79.80
2019-05-29T06:34:59.472Z,80.20
2019-05-29T06:37:55.504Z,77.60
2019-05-29T06:41:01.955Z,78.30
2019-05-29T06:43:53.685Z,78.70
2019-05-29T06:46:50.433Z,78.00
2019-05-29T06:49:46.274Z,77.50
2019-05-29T06:53:01.244Z,77.00
2019-05-29T06:55:52.942Z,78.40
2019-05-29T06:58:34.050Z,79.80
2019-05-29T07:01:19.317Z,79.00
2019-05-29T07:07:31.540Z,79.40
2019-05-29T07:10:20.609Z,77.40
2019-05-29T07:13:11.862Z,78.40
2019-05-29T07:16:01.564Z,77.70
2019-05-29T07:19:23.866Z,78.00
2019-05-29T07:21:38.806Z,77.30
2019-05-29T07:24:17.833Z,76.60
2019-05-29T07:26:55.363Z,77.00
2019-05-29T07:29:32.905Z,75.90
2019-05-29T07:32:10.575Z,74.90
2019-05-29T07:35:02.091Z,75.20
2019-05-29T07:37:32.325Z,75.80
2019-05-29T07:40:21.297Z,75.10
2019-05-29T07:43:08.466Z,76.70
2019-05-29T07:45:49.582Z,77.50
2019-05-29T07:48:35.406Z,77.90
2019-05-29T07:51:20.220Z,79.40
2019-05-29T07:54:14.439Z,81.40
2019-05-29T07:57:01.950Z,77.90
2019-05-29T07:59:42.686Z,75.20
2019-05-29T08:02:19.182Z,76.10
2019-05-29T08:05:09.101Z,75.50
2019-05-29T08:07:45.455Z,75.00
2019-05-29T08:10:21.960Z,72.50
2019-05-29T08:12:59.513Z,72.50
2019-05-29T08:15:52.071Z,74.30
2019-05-29T08:18:14.633Z,75.60
2019-05-29T08:20:52.350Z,70.00
2019-05-29T08:23:34.554Z,70.90
2019-05-29T08:26:12.006Z,70.10
2019-05-29T08:28:50.948Z,69.20
2019-05-29T08:31:27.309Z,69.10
2019-05-29T08:34:04.900Z,66.90
2019-05-29T08:37:05.919Z,66.70
2019-05-29T08:39:36.627Z,67.10
2019-05-29T08:42:27.104Z,68.50
2019-05-29T08:45:09.374Z,68.50
2019-05-29T08:47:51.968Z,66.90
2019-05-29T08:50:36.186Z,65.70
2019-05-29T08:53:27.674Z,67.50
2019-05-29T08:56:15.717Z,65.80
2019-05-29T08:59:19.132Z,64.70
2019-05-29T09:01:59.490Z,63.60
2019-05-29T09:04:44.855Z,62.70
2019-05-29T09:07:28.972Z,61.20
2019-05-29T09:10:01.674Z,61.90
2019-05-29T09:12:39.185Z,61.80
2019-05-29T09:15:21.122Z,63.40
2019-05-29T09:17:54.301Z,60.90
2019-05-29T09:20:57.251Z,61.20
2019-05-29T09:23:09.426Z,59.80
2019-05-29T09:25:47.066Z,60.50
2019-05-29T09:28:22.146Z,60.50
2019-05-29T09:30:58.194Z,60.10
2019-05-29T09:33:46.232Z,59.40
2019-05-29T09:36:33.008Z,59.10
2019-05-29T09:39:29.941Z,59.20
2019-05-29T09:42:18.500Z,59.30
2019-05-29T09:45:08.537Z,58.70
2019-05-29T09:47:57.885Z,59.00
2019-05-29T09:50:49.377Z,59.30
2019-05-29T09:53:28.833Z,58.80
2019-05-29T09:56:26.700Z,58.60
2019-05-29T09:59:10.930Z,58.70
2019-05-29T10:01:59.514Z,57.30
2019-05-29T10:04:31.866Z,56.50
2019-05-29T10:07:09.425Z,56.10
2019-05-29T10:09:47.060Z,56.50
2019-05-29T10:12:24.590Z,55.60
2019-05-29T10:15:02.672Z,56.30
2019-05-29T10:17:39.713Z,55.10
2019-05-29T10:20:17.261Z,54.70
2019-05-29T10:22:55.661Z,53.80
2019-05-29T10:25:32.473Z,54.40
2019-05-29T10:28:10.015Z,54.70
2019-05-29T10:30:48.251Z,54.80
2019-05-29T10:33:35.792Z,54.30
2019-05-29T10:36:20.580Z,53.60
2019-05-29T10:39:12.941Z,53.30
2019-05-29T10:42:07.756Z,54.20
2019-05-29T10:45:04.698Z,52.50
2019-05-29T10:47:52.186Z,53.70
2019-05-29T10:50:28.606Z,52.30
2019-05-29T10:53:14.849Z,51.80
2019-05-29T10:55:56.410Z,50.90
2019-05-29T10:58:59.123Z,51.00
2019-05-29T11:01:37.814Z,52.10
2019-05-29T11:04:24.341Z,51.40
2019-05-29T11:07:01.743Z,51.70
2019-05-29T11:09:44.665Z,51.50
2019-05-29T11:12:16.992Z,51.00
2019-05-29T11:14:55.046Z,51.10
2019-05-29T11:17:32.048Z,49.90
2019-05-29T11:20:10.268Z,49.90
2019-05-29T11:22:47.821Z,47.80
2019-05-29T11:25:27.721Z,45.80
2019-05-29T11:28:02.950Z,45.40
2019-05-29T11:30:45.345Z,45.60
2019-05-29T11:33:39.779Z,44.80
2019-05-29T11:36:22.036Z,45.00
2019-05-29T11:39:10.462Z,44.50
2019-05-29T11:42:28.320Z,43.30
2019-05-29T11:45:09.258Z,44.70
2019-05-29T11:47:54.734Z,44.30
2019-05-29T11:50:36.110Z,43.50
2019-05-29T11:53:21.151Z,41.10
2019-05-29T11:56:02.087Z,36.20
2019-05-29T11:58:38.661Z,29.30
2019-05-29T12:01:16.371Z,25.50
2019-05-29T12:04:25.376Z,23.40
2019-05-29T12:06:51.172Z,22.40
2019-05-29T12:09:32.902Z,22.30
2019-05-29T12:12:06.096Z,22.80
2019-05-29T12:14:59.080Z,23.60
2019-05-29T12:17:28.452Z,24.60
2019-05-29T12:20:27.207Z,26.10
2019-05-29T12:23:22.831Z,28.60
2019-05-29T12:25:36.728Z,29.20
2019-05-29T12:28:14.473Z,27.40
2019-05-29T12:30:53.379Z,28.40
2019-05-29T12:33:40.976Z,29.60
2019-05-29T12:36:20.356Z,29.10
2019-05-29T12:39:05.479Z,26.10
2019-05-29T12:41:57.510Z,24.70
2019-05-29T12:44:53.523Z,21.80
2019-05-29T12:47:34.160Z,23.90
2019-05-29T12:50:26.766Z,26.00
2019-05-29T12:53:29.091Z,28.80
2019-05-29T12:55:53.965Z,27.90
2019-05-29T12:58:31.928Z,25.20
2019-05-29T13:01:11.771Z,22.20
2019-05-29T13:03:49.255Z,20.60
2019-05-29T13:06:26.783Z,19.40
2019-05-29T13:09:05.163Z,19.90
2019-05-29T13:11:42.637Z,21.70
2019-05-29T13:14:20.240Z,23.50
2019-05-29T13:16:58.790Z,22.30
2019-05-29T13:19:35.527Z,21.50
2019-05-29T13:22:14.763Z,22.90
2019-05-29T13:24:52.883Z,24.60
2019-05-29T13:27:29.906Z,25.70
2019-05-29T13:30:08.458Z,23.70
2019-05-29T13:33:03.082Z,20.50
2019-05-29T13:35:45.046Z,19.70
2019-05-29T13:38:29.288Z,22.00
2019-05-29T13:41:09.400Z,24.20
2019-05-29T13:43:58.386Z,26.10
2019-05-29T13:46:38.252Z,25.20
2019-05-29T13:49:33.002Z,21.40
2019-05-29T13:52:11.810Z,18.10
2019-05-29T13:54:57.488Z,16.20
2019-05-29T13:57:43.337Z,17.10
2019-05-29T14:00:40.940Z,19.60
2019-05-29T14:03:18.447Z,22.50
2019-05-29T14:05:56.089Z,24.90
2019-05-29T14:08:33.772Z,26.70
2019-05-29T14:11:11.598Z,27.80
2019-05-29T14:13:49.318Z,28.60
2019-05-29T14:16:26.818Z,24.90
2019-05-29T14:19:04.819Z,21.90
2019-05-29T14:21:42.161Z,19.60
2019-05-29T14:24:29.249Z,19.00
2019-05-29T14:26:57.396Z,18.80
2019-05-29T14:29:34.895Z,19.30
2019-05-29T14:32:28.398Z,20.20
2019-05-29T14:35:11.120Z,20.00
2019-05-29T14:37:49.132Z,19.60
2019-05-29T14:40:49.831Z,18.90
2019-05-29T14:43:37.372Z,17.60
2019-05-29T14:46:19.316Z,17.10
2019-05-29T14:49:02.292Z,16.60
2019-05-29T14:51:47.913Z,16.80
2019-05-29T14:54:40.710Z,16.70
2019-05-29T14:57:17.406Z,18.00
2019-05-29T14:59:48.308Z,18.00
2019-05-29T15:02:24.690Z,18.10
2019-05-29T15:05:05.526Z,17.30
2019-05-29T15:07:41.860Z,17.00
2019-05-29T15:10:26.996Z,16.40
2019-05-29T15:12:59.136Z,17.40
2019-05-29T15:15:41.342Z,17.30
2019-05-29T15:18:20.435Z,17.20
2019-05-29T15:20:59.125Z,16.00
2019-05-29T15:23:36.912Z,15.70
2019-05-29T15:26:17.209Z,14.80
2019-05-29T15:28:59.945Z,14.70
2019-05-29T15:31:44.495Z,16.80
2019-05-29T15:34:25.619Z,18.10
2019-05-29T15:37:11.470Z,17.50
2019-05-29T15:40:17.089Z,17.00
2019-05-29T15:43:02.906Z,16.30
2019-05-29T15:45:50.101Z,15.80
2019-05-29T15:48:37.127Z,15.10
2019-05-29T15:51:48.766Z,15.60
2019-05-29T15:54:32.175Z,16.00
2019-05-29T15:57:17.975Z,18.40
2019-05-29T16:00:17.772Z,20.60
2019-05-29T16:02:54.955Z,20.20
2019-05-29T16:05:32.526Z,20.20
2019-05-29T16:08:10.256Z,21.30
2019-05-29T16:10:47.920Z,23.60
2019-05-29T16:13:25.701Z,23.70
2019-05-29T16:16:03.304Z,23.00
2019-05-29T16:18:40.882Z,21.20
2019-05-29T16:21:23.180Z,20.10
2019-05-29T16:24:05.899Z,21.40
2019-05-29T16:26:48.202Z,23.30
2019-05-29T16:29:27.490Z,24.50
2019-05-29T16:32:05.293Z,25.70
2019-05-29T16:34:43.868Z,24.00
2019-05-29T16:37:22.081Z,24.10
2019-05-29T16:40:02.077Z,25.40
2019-05-29T16:42:46.031Z,25.80
2019-05-29T16:45:25.280Z,25.10
2019-05-29T16:48:10.483Z,24.40
2019-05-29T16:50:48.594Z,23.00
2019-05-29T16:53:26.173Z,21.20
2019-05-29T16:56:03.959Z,19.30
2019-05-29T16:58:42.924Z,18.50
2019-05-29T17:01:21.793Z,17.30
2019-05-29T17:03:58.198Z,17.00
2019-05-29T17:06:35.751Z,17.70
2019-05-29T17:09:14.495Z,19.20
2019-05-29T17:11:51.582Z,21.00
2019-05-29T17:14:29.167Z,22.60
2019-05-29T17:17:06.830Z,24.30
2019-05-29T17:19:44.588Z,25.00
2019-05-29T17:22:22.839Z,24.10
2019-05-29T17:25:00.182Z,22.80
2019-05-29T17:27:37.910Z,21.80
2019-05-29T17:30:16.619Z,21.00
2019-05-29T17:32:54.124Z,20.50
2019-05-29T17:35:31.805Z,20.50
2019-05-29T17:38:10.652Z,21.00
2019-05-29T17:40:48.473Z,21.00
2019-05-29T17:43:28.620Z,21.90
2019-05-29T17:46:05.743Z,23.40
2019-05-29T17:48:43.898Z,25.30
2019-05-29T17:51:28.361Z,26.70
2019-05-29T17:54:18.187Z,26.50
2019-05-29T17:57:01.405Z,25.40
2019-05-29T17:59:44.827Z,24.80
2019-05-29T18:02:52.325Z,24.20
2019-05-29T18:05:32.887Z,24.10
2019-05-29T18:08:20.774Z,23.40
2019-05-29T18:10:58.617Z,23.80
2019-05-29T18:13:51.175Z,23.40
2019-05-29T18:16:30.543Z,23.90
2019-05-29T18:19:12.302Z,24.00
2019-05-29T18:21:50.731Z,24.40
2019-05-29T18:24:29.244Z,23.80
2019-05-29T18:27:08.304Z,24.60
2019-05-29T18:29:46.537Z,25.00
2019-05-29T18:32:25.006Z,25.60
2019-05-29T18:35:06.034Z,26.00
2019-05-29T18:37:44.312Z,26.40
2019-05-29T18:40:26.319Z,26.80
2019-05-29T18:43:04.193Z,27.50
2019-05-29T18:45:43.307Z,28.20
2019-05-29T18:48:27.262Z,28.60
2019-05-29T18:51:18.221Z,29.10
2019-05-29T18:53:55.139Z,29.40
2019-05-29T18:57:13.033Z,30.30
2019-05-29T18:59:29.557Z,32.20
2019-05-29T19:05:25.603Z,36.00
2019-05-29T19:08:10.481Z,37.80
2019-05-29T19:10:59.853Z,39.40
2019-05-29T19:13:52.694Z,41.10
2019-05-29T19:16:39.720Z,42.90
2019-05-29T19:19:24.181Z,44.50
2019-05-29T19:22:03.512Z,45.90
2019-05-29T19:24:41.352Z,47.30
2019-05-29T19:27:31.163Z,48.90
2019-05-29T19:29:57.676Z,50.40
2019-05-29T19:32:37.544Z,51.40
2019-05-29T19:35:15.534Z,52.90
2019-05-29T19:37:53.819Z,54.80
2019-05-29T19:40:32.548Z,55.40
2019-05-29T19:43:10.855Z,56.40
2019-05-29T19:45:50.041Z,57.50
2019-05-29T19:48:30.913Z,58.50
2019-05-29T19:51:25.134Z,59.20
2019-05-29T19:54:05.921Z,59.90
2019-05-29T19:57:06.013Z,61.00
2019-05-29T19:59:52.488Z,62.10
2019-05-29T20:02:45.322Z,62.60
2019-05-29T20:05:35.223Z,63.20
2019-05-29T20:08:13.039Z,64.60
2019-05-29T20:10:56.392Z,65.20
2019-05-29T20:13:37.992Z,66.40
2019-05-29T20:16:14.524Z,67.10
2019-05-29T20:18:54.036Z,67.20
2019-05-29T20:21:32.723Z,68.00
2019-05-29T20:24:10.356Z,68.60
2019-05-29T20:26:48.627Z,69.70
2019-05-29T20:29:27.104Z,70.70
2019-05-29T20:32:05.337Z,71.40
2019-05-29T20:34:44.801Z,72.10
2019-05-29T20:37:22.399Z,72.70
2019-05-29T20:40:00.000Z,73.40
2019-05-29T20:42:38.509Z,74.60
2019-05-29T20:45:15.319Z,74.80
2019-05-29T20:47:53.044Z,75.20
2019-05-29T20:50:30.887Z,76.10
2019-05-29T20:53:08.202Z,76.80
2019-05-29T20:55:45.796Z,77.40
2019-05-29T20:58:24.956Z,78.00
2019-05-29T21:01:03.178Z,78.40
2019-05-29T21:03:38.730Z,78.60
2019-05-29T21:06:16.164Z,79.00
2019-05-29T21:08:53.986Z,79.20
2019-05-29T21:11:33.207Z,79.80
2019-05-29T21:14:09.554Z,80.80
2019-05-29T21:16:47.110Z,81.50
2019-05-29T21:19:24.670Z,82.40
2019-05-29T21:22:02.567Z,82.50
2019-05-29T21:24:40.691Z,82.40
2019-05-29T21:27:17.893Z,82.60
2019-05-29T21:29:55.497Z,82.90
2019-05-29T21:32:33.182Z,83.40
2019-05-29T21:35:10.945Z,83.90
2019-05-29T21:37:48.629Z,84.30
2019-05-29T21:40:26.319Z,84.50
2019-05-29T21:43:03.981Z,85.70
2019-05-29T21:45:43.025Z,85.40
2019-05-29T21:48:19.266Z,85.80
2019-05-29T21:50:56.951Z,85.40
2019-05-29T21:53:34.556Z,85.40
2019-05-29T21:56:12.150Z,85.40
2019-05-29T21:59:03.209Z,86.50
2019-05-29T22:01:27.421Z,86.90
2019-05-29T22:04:05.094Z,87.50
2019-05-29T22:06:42.765Z,88.40
2019-05-29T22:09:20.178Z,89.40
2019-05-29T22:11:58.555Z,89.70
2019-05-29T22:14:35.565Z,90.10
2019-05-29T22:17:13.290Z,90.30
2019-05-29T22:19:50.855Z,90.70
2019-05-29T22:22:28.511Z,90.60
2019-05-29T22:25:06.720Z,90.90
2019-05-29T22:27:44.299Z,91.20
2019-05-29T22:30:21.836Z,91.50
2019-05-29T22:32:59.655Z,92.20
2019-05-29T22:35:37.051Z,93.10
2019-05-29T22:38:14.603Z,93.60
2019-05-29T22:40:53.655Z,94.00
2019-05-29T22:43:29.841Z,94.50
2019-05-29T22:46:07.456Z,95.50
2019-05-29T22:48:45.208Z,95.40
2019-05-29T22:51:22.993Z,95.10
2019-05-29T22:54:01.990Z,95.30
2019-05-29T22:56:38.492Z,95.10
2019-05-29T22:59:31.161Z,94.90
2019-05-29T23:01:54.091Z,95.00
2019-05-29T23:04:31.230Z,95.10
2019-05-29T23:07:08.844Z,95.40
2019-05-29T23:09:46.482Z,95.70
2019-05-29T23:12:24.014Z,95.70
2019-05-29T23:15:02.887Z,95.80
2019-05-29T23:17:39.254Z,96.00
2019-05-29T23:20:17.272Z,96.10
2019-05-29T23:22:54.937Z,95.70
2019-05-29T23:25:32.600Z,95.80
2019-05-29T23:28:10.174Z,95.90
2019-05-29T23:30:47.933Z,95.80
2019-05-29T23:33:25.544Z,96.00
2019-05-29T23:36:03.300Z,95.90
2019-05-29T23:38:40.645Z,96.10
2019-05-29T23:41:18.371Z,96.30
2019-05-29T23:43:57.385Z,96.60
2019-05-29T23:46:33.856Z,97.30
2019-05-29T23:49:11.436Z,97.60
2019-05-29T23:51:49.380Z,98.20
2019-05-29T23:54:26.984Z,98.80
2019-05-29T23:57:04.611Z,99.00
2019-05-29T23:59:42.304Z,99.50
